createdAt,value
2019-05-16T00:02:08.228Z,71.00
2019-05-16T00:04:38.597Z,71.30
2019-05-16T00:07:08.819Z,71.10
2019-05-16T00:09:38.938Z,71.40
2019-05-16T00:12:09.160Z,71.00
2019-05-16T00:14:39.382Z,71.20
2019-05-16T00:17:09.604Z,71.00
2019-05-16T00:19:40.033Z,71.20
2019-05-16T00:22:10.355Z,71.20
2019-05-16T00:24:40.374Z,71.40
2019-05-16T00:27:10.509Z,71.60
2019-05-16T00:29:40.641Z,71.50
2019-05-16T00:32:10.814Z,71.80
2019-05-16T00:34:41.925Z,71.90
2019-05-16T00:37:12.049Z,71.70
2019-05-16T00:39:42.082Z,72.10
2019-05-16T00:42:12.132Z,71.90
2019-05-16T00:44:42.181Z,71.90
2019-05-16T00:47:12.370Z,72.50
2019-05-16T00:49:42.533Z,72.50
2019-05-16T00:52:12.725Z,72.70
2019-05-16T00:54:43.271Z,72.50
2019-05-16T00:57:13.451Z,72.60
2019-05-16T00:59:45.256Z,73.10
2019-05-16T01:02:17.799Z,73.10
2019-05-16T01:04:48.724Z,73.20
2019-05-16T01:07:19.154Z,72.80
2019-05-16T01:09:49.286Z,73.10
2019-05-16T01:12:19.506Z,73.10
2019-05-16T01:14:49.729Z,73.30
2019-05-16T01:17:19.851Z,73.30
2019-05-16T01:19:50.378Z,73.10
2019-05-16T01:22:20.498Z,72.30
2019-05-16T01:24:50.624Z,72.10
2019-05-16T01:27:20.838Z,70.80
2019-05-16T01:29:50.958Z,72.10
2019-05-16T01:32:22.000Z,72.40
2019-05-16T01:34:52.119Z,71.80
2019-05-16T01:37:22.443Z,72.00
2019-05-16T01:39:52.563Z,72.90
2019-05-16T01:42:22.789Z,72.50
2019-05-16T01:44:52.906Z,72.90
2019-05-16T01:47:23.024Z,73.30
2019-05-16T01:49:53.145Z,73.50
2019-05-16T01:52:23.153Z,73.60
2019-05-16T01:54:53.282Z,73.90
2019-05-16T01:57:23.504Z,74.20
2019-05-16T01:59:53.625Z,74.20
2019-05-16T02:02:25.184Z,73.20
2019-05-16T02:04:55.386Z,73.60
2019-05-16T02:07:28.108Z,74.20
2019-05-16T02:09:58.246Z,73.70
2019-05-16T02:12:28.528Z,73.60
2019-05-16T02:14:58.818Z,73.90
2019-05-16T02:17:29.099Z,73.90
2019-05-16T02:19:59.291Z,74.00
2019-05-16T02:22:29.499Z,73.90
2019-05-16T02:25:00.349Z,74.20
2019-05-16T02:27:30.470Z,75.10
2019-05-16T02:30:00.510Z,74.50
2019-05-16T02:32:31.304Z,74.80
2019-05-16T02:35:01.886Z,74.80
2019-05-16T02:37:34.737Z,74.60
2019-05-16T02:40:06.802Z,74.80
2019-05-16T02:42:37.116Z,75.10
2019-05-16T02:45:11.027Z,75.00
2019-05-16T02:47:42.724Z,75.10
2019-05-16T02:50:14.351Z,75.10
2019-05-16T02:52:44.471Z,75.10
2019-05-16T02:55:14.633Z,74.50
2019-05-16T02:57:44.706Z,74.50
2019-05-16T03:00:15.475Z,74.90
2019-05-16T03:02:45.764Z,74.60
2019-05-16T03:05:16.009Z,74.60
2019-05-16T03:07:47.530Z,75.10
2019-05-16T03:10:20.366Z,75.30
2019-05-16T03:12:52.115Z,74.80
2019-05-16T03:15:22.404Z,74.90
2019-05-16T03:17:58.760Z,74.70
2019-05-16T03:20:31.524Z,75.00
2019-05-16T03:23:02.269Z,75.00
2019-05-16T03:25:32.815Z,75.10
2019-05-16T03:28:02.935Z,75.20
2019-05-16T03:30:34.950Z,74.90
2019-05-16T03:33:05.921Z,75.20
2019-05-16T03:35:36.265Z,74.60
2019-05-16T03:38:06.353Z,74.80
2019-05-16T03:40:37.497Z,75.60
2019-05-16T03:43:07.649Z,75.30
2019-05-16T03:45:41.375Z,75.30
2019-05-16T03:48:12.020Z,75.70
2019-05-16T03:50:41.446Z,75.20
2019-05-16T03:53:11.919Z,75.30
2019-05-16T03:55:42.236Z,75.90
2019-05-16T03:58:12.337Z,75.70
2019-05-16T04:00:55.619Z,75.80
2019-05-16T04:03:28.610Z,75.50
2019-05-16T04:06:00.834Z,75.70
2019-05-16T04:08:31.012Z,75.20
2019-05-16T04:11:01.693Z,75.60
2019-05-16T04:13:32.241Z,75.80
2019-05-16T04:16:02.243Z,76.20
2019-05-16T04:18:33.345Z,75.70
2019-05-16T04:21:03.796Z,75.70
2019-05-16T04:23:33.805Z,75.40
2019-05-16T04:26:03.874Z,75.10
2019-05-16T04:28:34.310Z,76.00
2019-05-16T04:31:04.347Z,75.90
2019-05-16T04:33:34.373Z,74.90
2019-05-16T04:36:04.606Z,75.00
2019-05-16T04:38:41.244Z,75.10
2019-05-16T04:41:06.352Z,75.30
2019-05-16T04:43:36.423Z,74.80
2019-05-16T04:46:06.489Z,74.10
2019-05-16T04:48:36.591Z,74.20
2019-05-16T04:51:06.784Z,74.20
2019-05-16T04:53:36.834Z,74.50
2019-05-16T04:56:06.881Z,74.20
2019-05-16T04:58:36.929Z,73.90
2019-05-16T05:01:06.968Z,73.60
2019-05-16T05:03:36.991Z,72.80
2019-05-16T05:06:07.906Z,73.60
2019-05-16T05:08:50.457Z,73.40
2019-05-16T05:11:13.141Z,73.60
2019-05-16T05:13:43.175Z,72.10
2019-05-16T05:16:13.211Z,72.40
2019-05-16T05:18:43.574Z,72.40
2019-05-16T05:21:13.593Z,71.90
2019-05-16T05:23:43.881Z,71.50
2019-05-16T05:26:13.921Z,71.60
2019-05-16T05:28:43.976Z,71.50
2019-05-16T05:31:14.025Z,71.10
2019-05-16T05:33:44.077Z,71.00
2019-05-16T05:36:15.697Z,70.80
2019-05-16T05:38:48.302Z,70.90
2019-05-16T05:41:19.763Z,71.00
2019-05-16T05:43:50.364Z,71.10
2019-05-16T05:46:20.649Z,71.60
2019-05-16T05:48:51.817Z,72.30
2019-05-16T05:51:21.925Z,72.50
2019-05-16T05:53:51.985Z,72.40
2019-05-16T05:56:22.023Z,71.80
2019-05-16T05:58:52.057Z,70.80
2019-05-16T06:01:22.126Z,71.10
2019-05-16T06:03:52.225Z,70.50
2019-05-16T06:06:22.321Z,69.20
2019-05-16T06:08:52.357Z,69.60
2019-05-16T06:11:22.466Z,69.60
2019-05-16T06:13:52.501Z,70.00
2019-05-16T06:16:22.632Z,68.50
2019-05-16T06:18:52.749Z,68.70
2019-05-16T06:21:22.793Z,69.20
2019-05-16T06:23:52.840Z,69.50
2019-05-16T06:26:23.239Z,66.90
2019-05-16T06:28:53.267Z,67.60
2019-05-16T06:31:23.315Z,67.40
2019-05-16T06:33:53.413Z,66.40
2019-05-16T06:36:23.482Z,67.80
2019-05-16T06:38:53.535Z,66.90
2019-05-16T06:41:23.588Z,66.50
2019-05-16T06:43:53.725Z,64.70
2019-05-16T06:46:23.771Z,64.00
2019-05-16T06:48:53.839Z,64.00
2019-05-16T06:51:23.893Z,63.70
2019-05-16T06:53:53.951Z,64.30
2019-05-16T06:56:23.977Z,63.10
2019-05-16T06:58:54.022Z,61.80
2019-05-16T07:01:24.149Z,62.00
2019-05-16T07:03:54.193Z,63.10
2019-05-16T07:06:47.613Z,63.20
2019-05-16T07:08:56.392Z,62.10
2019-05-16T07:11:26.461Z,60.90
2019-05-16T07:14:00.562Z,62.10
2019-05-16T07:16:31.893Z,62.00
2019-05-16T07:19:01.947Z,60.20
2019-05-16T07:21:33.017Z,60.40
2019-05-16T07:24:03.136Z,59.60
2019-05-16T07:26:33.188Z,59.20
2019-05-16T07:29:04.394Z,59.40
2019-05-16T07:31:34.497Z,59.30
2019-05-16T07:34:04.936Z,58.70
2019-05-16T07:36:35.034Z,57.70
2019-05-16T07:39:06.101Z,57.30
2019-05-16T07:41:36.163Z,57.20
2019-05-16T07:44:06.275Z,58.30
2019-05-16T07:46:36.382Z,57.50
2019-05-16T07:49:06.508Z,55.90
2019-05-16T07:51:36.578Z,56.10
2019-05-16T07:54:06.699Z,55.50
2019-05-16T07:56:36.840Z,54.20
2019-05-16T07:59:07.023Z,53.00
2019-05-16T08:01:37.067Z,53.70
2019-05-16T08:04:10.607Z,53.30
2019-05-16T08:06:41.634Z,54.10
2019-05-16T08:09:12.563Z,53.10
2019-05-16T08:11:43.228Z,52.90
2019-05-16T08:14:13.495Z,49.40
2019-05-16T08:16:43.549Z,49.40
2019-05-16T08:19:13.645Z,49.90
2019-05-16T08:21:44.012Z,46.50
2019-05-16T08:24:15.132Z,50.00
2019-05-16T08:26:45.405Z,49.40
2019-05-16T08:29:15.464Z,43.60
2019-05-16T08:31:45.804Z,42.60
2019-05-16T08:34:15.832Z,42.00
2019-05-16T08:36:45.950Z,45.40
2019-05-16T08:39:16.367Z,43.80
2019-05-16T08:41:46.407Z,42.80
2019-05-16T08:44:16.832Z,43.30
2019-05-16T08:46:53.272Z,46.00
2019-05-16T08:49:22.128Z,44.80
2019-05-16T08:51:52.901Z,42.50
2019-05-16T08:54:22.189Z,42.20
2019-05-16T08:56:52.230Z,39.90
2019-05-16T08:59:22.393Z,41.50
2019-05-16T09:01:57.935Z,40.80
2019-05-16T09:04:25.142Z,41.10
2019-05-16T09:06:55.822Z,40.40
2019-05-16T09:09:41.588Z,40.80
2019-05-16T09:11:57.609Z,39.20
2019-05-16T09:14:31.873Z,40.40
2019-05-16T09:16:59.365Z,40.30
2019-05-16T09:19:29.455Z,40.10
2019-05-16T09:21:59.479Z,38.30
2019-05-16T09:24:29.527Z,38.00
2019-05-16T09:27:00.056Z,37.50
2019-05-16T09:29:30.159Z,39.60
2019-05-16T09:32:12.720Z,38.20
2019-05-16T09:34:33.485Z,38.80
2019-05-16T09:37:03.533Z,37.50
2019-05-16T09:39:33.997Z,37.40
2019-05-16T09:42:08.026Z,38.10
2019-05-16T09:44:37.124Z,37.10
2019-05-16T09:47:07.833Z,37.80
2019-05-16T09:49:38.115Z,37.50
2019-05-16T09:52:08.291Z,37.10
2019-05-16T09:54:38.391Z,36.70
2019-05-16T09:57:08.501Z,36.10
2019-05-16T09:59:38.635Z,37.60
2019-05-16T10:02:08.801Z,36.70
2019-05-16T10:04:38.914Z,36.00
2019-05-16T10:07:09.009Z,36.60
2019-05-16T10:09:45.022Z,35.70
2019-05-16T10:12:15.242Z,35.70
2019-05-16T10:14:42.504Z,36.50
2019-05-16T10:17:12.616Z,36.00
2019-05-16T10:19:42.667Z,38.10
2019-05-16T10:22:12.766Z,34.60
2019-05-16T10:24:42.877Z,37.80
2019-05-16T10:27:12.984Z,35.60
2019-05-16T10:29:43.219Z,37.50
2019-05-16T10:32:13.393Z,36.00
2019-05-16T10:34:43.559Z,35.60
2019-05-16T10:37:13.593Z,37.10
2019-05-16T10:39:44.038Z,38.20
2019-05-16T10:42:27.179Z,37.40
2019-05-16T10:44:48.445Z,37.80
2019-05-16T10:47:17.592Z,37.00
2019-05-16T10:49:47.825Z,37.10
2019-05-16T10:52:18.353Z,39.10
2019-05-16T10:54:57.403Z,38.90
2019-05-16T10:57:20.306Z,39.10
2019-05-16T11:00:05.122Z,38.30
2019-05-16T11:02:22.143Z,39.20
2019-05-16T11:04:59.982Z,41.50
2019-05-16T11:07:23.818Z,39.60
2019-05-16T11:10:01.430Z,42.70
2019-05-16T11:12:45.191Z,43.40
2019-05-16T11:14:57.701Z,42.70
2019-05-16T11:17:27.967Z,43.30
2019-05-16T11:19:58.120Z,43.70
2019-05-16T11:22:30.025Z,42.80
2019-05-16T11:25:00.159Z,41.90
2019-05-16T11:27:30.205Z,38.90
2019-05-16T11:30:00.253Z,42.30
2019-05-16T11:32:30.363Z,42.60
2019-05-16T11:35:00.722Z,42.60
2019-05-16T11:37:30.781Z,41.50
2019-05-16T11:40:00.825Z,40.80
2019-05-16T11:42:30.866Z,42.10
2019-05-16T11:45:00.940Z,42.40
2019-05-16T11:47:31.492Z,42.20
2019-05-16T11:50:03.042Z,41.70
2019-05-16T11:52:33.132Z,39.80
2019-05-16T11:55:03.548Z,40.70
2019-05-16T11:57:33.620Z,41.40
2019-05-16T12:00:07.986Z,40.90
2019-05-16T12:02:41.950Z,41.40
2019-05-16T12:05:10.626Z,40.40
2019-05-16T12:07:44.450Z,40.70
2019-05-16T12:10:13.050Z,41.10
2019-05-16T12:12:43.089Z,41.50
2019-05-16T12:15:19.182Z,43.80
2019-05-16T12:18:00.376Z,41.90
2019-05-16T12:20:17.733Z,41.70
2019-05-16T12:22:47.762Z,42.10
2019-05-16T12:25:17.953Z,41.50
2019-05-16T12:27:48.207Z,42.20
2019-05-16T12:30:20.139Z,41.90
2019-05-16T12:32:50.229Z,41.50
2019-05-16T12:35:20.365Z,40.50
2019-05-16T12:37:51.980Z,41.20
2019-05-16T12:40:22.952Z,41.00
2019-05-16T12:42:54.451Z,42.00
2019-05-16T12:45:27.533Z,41.40
2019-05-16T12:47:57.788Z,41.70
2019-05-16T12:50:28.934Z,41.50
2019-05-16T12:53:00.179Z,40.60
2019-05-16T12:55:31.562Z,41.90
2019-05-16T12:58:12.666Z,42.00
2019-05-16T13:00:33.489Z,43.00
2019-05-16T13:03:04.053Z,42.90
2019-05-16T13:05:34.245Z,42.50
2019-05-16T13:08:04.423Z,42.60
2019-05-16T13:10:34.607Z,43.20
2019-05-16T13:13:07.861Z,43.40
2019-05-16T13:15:41.833Z,43.40
2019-05-16T13:18:09.737Z,44.30
2019-05-16T13:20:41.378Z,43.40
2019-05-16T13:23:14.659Z,43.70
2019-05-16T13:25:44.470Z,43.70
2019-05-16T13:28:14.598Z,43.80
2019-05-16T13:30:46.949Z,44.60
2019-05-16T13:33:17.917Z,44.90
2019-05-16T13:35:48.144Z,44.20
2019-05-16T13:38:18.546Z,43.20
2019-05-16T13:40:48.713Z,43.70
2019-05-16T13:43:18.815Z,44.10
2019-05-16T13:45:48.916Z,44.80
2019-05-16T13:48:18.960Z,44.50
2019-05-16T13:50:48.978Z,44.80
2019-05-16T13:53:19.082Z,44.70
2019-05-16T13:55:49.184Z,44.00
2019-05-16T13:58:19.219Z,44.80
2019-05-16T14:00:49.250Z,43.50
2019-05-16T14:03:19.359Z,43.40
2019-05-16T14:05:49.473Z,44.00
2019-05-16T14:08:19.549Z,44.00
2019-05-16T14:10:49.668Z,44.90
2019-05-16T14:13:19.708Z,45.00
2019-05-16T14:15:49.737Z,45.30
2019-05-16T14:18:19.849Z,43.50
2019-05-16T14:20:49.890Z,43.50
2019-05-16T14:23:21.060Z,44.10
2019-05-16T14:25:52.717Z,44.80
2019-05-16T14:28:22.814Z,43.00
2019-05-16T14:30:52.927Z,43.10
2019-05-16T14:33:24.149Z,43.40
2019-05-16T14:35:56.374Z,44.10
2019-05-16T14:38:26.941Z,44.80
2019-05-16T14:40:57.516Z,44.10
2019-05-16T14:43:28.775Z,43.70
2019-05-16T14:45:58.811Z,43.40
2019-05-16T14:48:28.931Z,43.30
2019-05-16T14:50:58.976Z,43.90
2019-05-16T14:53:29.019Z,43.70
2019-05-16T14:55:59.428Z,43.90
2019-05-16T14:58:30.730Z,44.00
2019-05-16T15:01:01.166Z,44.60
2019-05-16T15:03:31.307Z,45.40
2019-05-16T15:06:01.878Z,45.30
2019-05-16T15:08:34.498Z,45.00
2019-05-16T15:11:07.375Z,44.40
2019-05-16T15:13:37.119Z,44.10
2019-05-16T15:16:07.800Z,44.50
2019-05-16T15:18:38.551Z,44.20
2019-05-16T15:21:09.108Z,45.00
2019-05-16T15:23:39.242Z,44.40
2019-05-16T15:26:09.585Z,45.00
2019-05-16T15:28:40.912Z,44.80
2019-05-16T15:31:11.089Z,45.70
2019-05-16T15:33:41.124Z,45.80
2019-05-16T15:36:11.231Z,46.30
2019-05-16T15:38:41.262Z,47.30
2019-05-16T15:41:12.508Z,47.30
2019-05-16T15:43:42.553Z,47.10
2019-05-16T15:46:12.649Z,46.10
2019-05-16T15:48:42.961Z,44.80
2019-05-16T15:51:13.789Z,47.10
2019-05-16T15:53:44.940Z,45.20
2019-05-16T15:56:17.642Z,47.00
2019-05-16T15:58:46.859Z,45.40
2019-05-16T16:01:18.685Z,45.10
2019-05-16T16:03:48.975Z,45.60
2019-05-16T16:06:19.113Z,45.30
2019-05-16T16:08:49.234Z,44.40
2019-05-16T16:11:19.471Z,45.40
2019-05-16T16:13:49.782Z,45.10
2019-05-16T16:16:20.003Z,45.00
2019-05-16T16:18:50.111Z,45.70
2019-05-16T16:21:20.344Z,44.90
2019-05-16T16:23:50.566Z,46.50
2019-05-16T16:26:20.788Z,46.40
2019-05-16T16:28:50.904Z,45.90
2019-05-16T16:31:23.996Z,46.10
2019-05-16T16:33:54.316Z,45.90
2019-05-16T16:36:24.544Z,45.90
2019-05-16T16:38:56.643Z,45.70
2019-05-16T16:41:27.639Z,47.20
2019-05-16T16:43:57.975Z,46.10
2019-05-16T16:46:28.020Z,45.50
2019-05-16T16:48:59.758Z,45.00
2019-05-16T16:51:30.226Z,45.80
2019-05-16T16:54:00.270Z,46.60
2019-05-16T16:56:30.314Z,45.80
2019-05-16T16:59:00.350Z,45.50
2019-05-16T17:01:30.396Z,44.60
2019-05-16T17:04:00.431Z,44.90
2019-05-16T17:06:31.642Z,45.50
2019-05-16T17:09:01.757Z,45.50
2019-05-16T17:11:33.573Z,46.00
2019-05-16T17:14:03.737Z,45.80
2019-05-16T17:16:37.181Z,46.50
2019-05-16T17:19:08.014Z,46.70
2019-05-16T17:21:38.116Z,46.60
2019-05-16T17:24:08.216Z,47.00
2019-05-16T17:26:38.649Z,47.20
2019-05-16T17:29:08.829Z,47.10
2019-05-16T17:31:38.867Z,47.20
2019-05-16T17:34:08.915Z,47.00
2019-05-16T17:36:39.013Z,47.20
2019-05-16T17:39:09.198Z,47.40
2019-05-16T17:41:39.314Z,47.50
2019-05-16T17:44:09.483Z,47.60
2019-05-16T17:46:40.994Z,47.70
2019-05-16T17:49:11.231Z,48.00
2019-05-16T17:51:41.269Z,49.10
2019-05-16T17:54:11.320Z,48.30
2019-05-16T17:56:41.414Z,48.40
2019-05-16T17:59:11.555Z,48.80
2019-05-16T18:01:41.646Z,48.90
2019-05-16T18:04:13.724Z,48.90
2019-05-16T18:06:43.845Z,49.30
2019-05-16T18:09:13.937Z,49.30
2019-05-16T18:11:43.986Z,49.30
2019-05-16T18:14:16.953Z,49.20
2019-05-16T18:16:53.600Z,49.40
2019-05-16T18:19:17.785Z,49.50
2019-05-16T18:21:47.812Z,49.70
2019-05-16T18:24:17.843Z,49.60
2019-05-16T18:26:47.893Z,49.70
2019-05-16T18:29:17.989Z,49.70
2019-05-16T18:31:48.034Z,49.70
2019-05-16T18:34:18.060Z,49.80
2019-05-16T18:36:49.630Z,50.30
2019-05-16T18:39:19.743Z,50.60
2019-05-16T18:41:49.842Z,50.60
2019-05-16T18:44:19.954Z,50.70
2019-05-16T18:47:03.745Z,50.70
2019-05-16T18:49:24.081Z,50.40
2019-05-16T18:51:53.459Z,50.40
2019-05-16T18:54:23.491Z,50.60
2019-05-16T18:56:54.305Z,50.80
2019-05-16T18:59:26.165Z,51.00
2019-05-16T19:01:56.078Z,50.80
2019-05-16T19:04:27.006Z,50.80
2019-05-16T19:06:59.617Z,50.90
2019-05-16T19:09:28.985Z,51.20
2019-05-16T19:11:59.332Z,51.10
2019-05-16T19:14:29.546Z,51.10
2019-05-16T19:16:59.646Z,51.40
2019-05-16T19:19:29.704Z,52.90
2019-05-16T19:21:59.725Z,54.20
2019-05-16T19:24:31.276Z,54.50
2019-05-16T19:27:01.684Z,55.30
2019-05-16T19:29:32.112Z,55.90
2019-05-16T19:32:02.211Z,56.40
2019-05-16T19:34:32.249Z,56.70
2019-05-16T19:37:02.276Z,57.10
2019-05-16T19:39:32.486Z,57.30
2019-05-16T19:42:02.609Z,56.90
2019-05-16T19:44:32.628Z,56.60
2019-05-16T19:47:02.668Z,56.50
2019-05-16T19:49:32.841Z,56.00
2019-05-16T19:52:02.955Z,55.70
2019-05-16T19:54:33.486Z,55.80
2019-05-16T19:57:03.604Z,55.70
2019-05-16T19:59:33.725Z,56.10
2019-05-16T20:02:03.947Z,55.90
2019-05-16T20:04:36.486Z,55.60
2019-05-16T20:07:07.446Z,55.40
2019-05-16T20:09:37.786Z,55.70
2019-05-16T20:12:09.646Z,55.60
2019-05-16T20:14:39.766Z,55.40
2019-05-16T20:17:09.887Z,55.70
2019-05-16T20:19:40.006Z,55.60
2019-05-16T20:22:10.227Z,55.90
2019-05-16T20:24:40.354Z,55.90
2019-05-16T20:27:10.569Z,56.10
2019-05-16T20:29:41.098Z,56.20
2019-05-16T20:32:11.641Z,56.60
2019-05-16T20:34:41.849Z,57.60
2019-05-16T20:37:12.071Z,57.10
2019-05-16T20:39:42.295Z,57.00
2019-05-16T20:42:12.414Z,57.30
2019-05-16T20:44:42.635Z,57.90
2019-05-16T20:47:12.824Z,57.60
2019-05-16T20:49:42.977Z,57.80
2019-05-16T20:52:13.198Z,57.70
2019-05-16T20:54:43.318Z,57.70
2019-05-16T20:57:13.543Z,57.40
2019-05-16T20:59:43.663Z,57.70
2019-05-16T21:02:16.252Z,57.60
2019-05-16T21:04:46.499Z,58.40
2019-05-16T21:07:17.217Z,57.20
2019-05-16T21:09:47.417Z,56.90
2019-05-16T21:12:17.490Z,56.60
2019-05-16T21:14:48.620Z,56.10
2019-05-16T21:17:18.709Z,56.20
2019-05-16T21:19:48.814Z,56.20
2019-05-16T21:22:19.368Z,56.40
2019-05-16T21:24:49.722Z,56.40
2019-05-16T21:27:19.810Z,56.00
2019-05-16T21:29:49.908Z,56.10
2019-05-16T21:32:21.037Z,56.00
2019-05-16T21:34:51.401Z,56.30
2019-05-16T21:37:21.425Z,55.70
2019-05-16T21:39:51.453Z,55.80
2019-05-16T21:42:21.494Z,56.20
2019-05-16T21:44:51.521Z,56.30
2019-05-16T21:47:21.573Z,56.30
2019-05-16T21:49:52.028Z,56.10
2019-05-16T21:52:22.327Z,56.30
2019-05-16T21:54:52.358Z,56.20
2019-05-16T21:57:22.388Z,55.70
2019-05-16T21:59:52.482Z,55.40
2019-05-16T22:02:26.390Z,55.60
2019-05-16T22:04:57.923Z,55.00
2019-05-16T22:07:33.555Z,55.10
2019-05-16T22:09:59.060Z,54.80
2019-05-16T22:12:29.222Z,55.60
2019-05-16T22:14:59.896Z,56.00
2019-05-16T22:17:30.063Z,55.80
2019-05-16T22:20:00.162Z,56.10
2019-05-16T22:22:30.195Z,55.20
2019-05-16T22:25:00.560Z,55.10
2019-05-16T22:27:30.752Z,56.10
2019-05-16T22:30:00.854Z,55.60
2019-05-16T22:32:31.022Z,55.50
2019-05-16T22:35:01.194Z,56.50
2019-05-16T22:37:31.291Z,56.90
2019-05-16T22:40:06.621Z,57.10
2019-05-16T22:42:33.867Z,57.00
2019-05-16T22:45:08.849Z,57.20
2019-05-16T22:47:39.155Z,57.10
2019-05-16T22:50:09.739Z,57.10
2019-05-16T22:52:39.837Z,56.60
2019-05-16T22:55:10.366Z,56.50
2019-05-16T22:57:40.403Z,57.10
2019-05-16T23:00:20.997Z,57.10
2019-05-16T23:02:51.029Z,56.50
2019-05-16T23:05:21.638Z,56.70
2019-05-16T23:08:02.947Z,56.50
2019-05-16T23:10:25.138Z,56.90
2019-05-16T23:12:57.205Z,56.60
2019-05-16T23:15:27.875Z,56.70
2019-05-16T23:17:58.885Z,56.90
2019-05-16T23:20:28.914Z,57.80
2019-05-16T23:22:59.011Z,57.20
2019-05-16T23:25:29.038Z,57.10
2019-05-16T23:27:59.562Z,56.80
2019-05-16T23:30:29.718Z,56.70
2019-05-16T23:32:59.771Z,56.90
2019-05-16T23:35:29.829Z,56.70
2019-05-16T23:37:59.879Z,56.80
2019-05-16T23:40:29.978Z,57.00
2019-05-16T23:43:00.043Z,57.60
2019-05-16T23:45:30.158Z,57.30
2019-05-16T23:48:00.192Z,57.70
2019-05-16T23:50:31.864Z,57.70
2019-05-16T23:53:02.286Z,57.30
2019-05-16T23:55:32.411Z,56.40
2019-05-16T23:58:02.414Z,56.60
